createdAt,value
2023-09-06T00:00:53.184Z,101639.22
2023-09-06T00:03:20.453Z,101642.91
2023-09-06T00:05:48.563Z,101642.06
2023-09-06T00:08:17.498Z,101634.28
2023-09-06T00:10:45.351Z,101646.66
2023-09-06T00:13:14.161Z,101636.25
2023-09-06T00:15:41.698Z,101639.03
2023-09-06T00:18:09.811Z,101637.38
2023-09-06T00:20:38.135Z,101634.81
2023-09-06T00:23:14.754Z,101636.66
2023-09-06T00:25:41.577Z,101639.28
2023-09-06T00:28:08.633Z,101636.66
2023-09-06T00:30:36.805Z,101639.31
2023-09-06T00:33:07.715Z,101636.72
2023-09-06T00:35:35.115Z,101645.63
2023-09-06T00:38:06.509Z,101647.44
2023-09-06T00:40:38.682Z,101639.53
2023-09-06T00:43:07.647Z,101648.53
2023-09-06T00:45:39.248Z,101642.44
2023-09-06T00:48:08.951Z,101647.06
2023-09-06T00:50:36.819Z,101640.91
2023-09-06T00:53:07.515Z,101642.75
2023-09-06T00:55:35.915Z,101642.00
2023-09-06T00:58:02.879Z,101641.13
2023-09-06T01:00:30.054Z,101642.00
2023-09-06T01:02:57.659Z,101641.19
2023-09-06T01:05:27.683Z,101639.44
2023-09-06T01:07:58.698Z,101639.59
2023-09-06T01:10:25.569Z,101647.59
2023-09-06T01:12:56.280Z,101643.19
2023-09-06T01:15:23.792Z,101647.63
2023-09-06T01:17:53.535Z,101645.03
2023-09-06T01:20:30.315Z,101648.56
2023-09-06T01:23:10.446Z,101650.47
2023-09-06T01:25:38.324Z,101650.50
2023-09-06T01:28:06.220Z,101641.75
2023-09-06T01:30:33.587Z,101644.47
2023-09-06T01:33:01.553Z,101648.00
2023-09-06T01:35:28.917Z,101646.25
2023-09-06T01:37:55.808Z,101653.28
2023-09-06T01:40:23.048Z,101655.94
2023-09-06T01:42:50.472Z,101651.66
2023-09-06T01:45:18.681Z,101649.16
2023-09-06T01:47:48.284Z,101654.47
2023-09-06T01:50:20.726Z,101654.59
2023-09-06T01:52:48.863Z,101659.88
2023-09-06T01:55:15.790Z,101661.63
2023-09-06T01:57:42.876Z,101661.63
2023-09-06T02:00:28.496Z,101663.44
2023-09-06T02:02:56.129Z,101658.25
2023-09-06T02:05:23.674Z,101663.66
2023-09-06T02:07:51.292Z,101666.38
2023-09-06T02:10:18.815Z,101657.63
2023-09-06T02:12:46.091Z,101669.06
2023-09-06T02:15:16.093Z,101659.44
2023-09-06T02:17:45.240Z,101667.34
2023-09-06T02:20:21.108Z,101662.16
2023-09-06T02:22:53.195Z,101663.06
2023-09-06T02:25:26.551Z,101667.56
2023-09-06T02:27:54.015Z,101671.03
2023-09-06T02:30:21.680Z,101660.56
2023-09-06T02:32:49.910Z,101664.13
2023-09-06T02:35:17.222Z,101662.38
2023-09-06T02:37:44.428Z,101658.91
2023-09-06T02:40:19.154Z,101658.97
2023-09-06T02:42:46.178Z,101662.50
2023-09-06T02:45:13.238Z,101664.38
2023-09-06T02:47:50.734Z,101669.66
2023-09-06T02:50:19.044Z,101663.56
2023-09-06T02:52:46.478Z,101660.13
2023-09-06T02:55:15.033Z,101668.03
2023-09-06T02:57:43.349Z,101665.53
2023-09-06T03:00:24.784Z,101666.41
2023-09-06T03:02:55.440Z,101656.88
2023-09-06T03:05:23.753Z,101653.41
2023-09-06T03:07:51.337Z,101661.31
2023-09-06T03:10:24.367Z,101665.72
2023-09-06T03:12:56.356Z,101665.72
2023-09-06T03:15:25.291Z,101656.13
2023-09-06T03:17:52.891Z,101666.59
2023-09-06T03:20:24.011Z,101657.91
2023-09-06T03:22:51.704Z,101668.47
2023-09-06T03:25:19.033Z,101670.19
2023-09-06T03:27:46.255Z,101668.41
2023-09-06T03:30:16.342Z,101668.41
2023-09-06T03:32:44.080Z,101664.88
2023-09-06T03:35:11.946Z,101670.19
2023-09-06T03:37:42.647Z,101672.94
2023-09-06T03:40:28.699Z,101670.34
2023-09-06T03:42:56.294Z,101671.34
2023-09-06T03:45:25.614Z,101667.84
2023-09-06T03:47:53.720Z,101674.03
2023-09-06T03:50:22.537Z,101666.06
2023-09-06T03:52:49.572Z,101674.03
2023-09-06T03:55:18.006Z,101674.03
2023-09-06T03:57:45.018Z,101667.00
2023-09-06T04:00:32.435Z,101667.03
2023-09-06T04:02:59.898Z,101665.25
2023-09-06T04:05:28.224Z,101672.28
2023-09-06T04:08:00.158Z,101673.16
2023-09-06T04:10:36.413Z,101680.19
2023-09-06T04:13:08.317Z,101672.28
2023-09-06T04:15:36.879Z,101672.28
2023-09-06T04:18:06.189Z,101674.06
2023-09-06T04:20:39.624Z,101677.56
2023-09-06T04:23:14.318Z,101681.06
2023-09-06T04:25:43.453Z,101676.69
2023-09-06T04:28:12.423Z,101677.56
2023-09-06T04:30:42.033Z,101685.41
2023-09-06T04:33:15.858Z,101684.56
2023-09-06T04:35:48.309Z,101687.22
2023-09-06T04:38:20.475Z,101691.63
2023-09-06T04:40:48.458Z,101690.72
2023-09-06T04:43:18.346Z,101700.41
2023-09-06T04:45:46.022Z,101696.00
2023-09-06T04:48:18.053Z,101702.16
2023-09-06T04:50:46.833Z,101696.88
2023-09-06T04:53:14.398Z,101702.16
2023-09-06T04:55:41.744Z,101702.16
2023-09-06T04:58:10.032Z,101703.91
2023-09-06T05:00:40.582Z,101710.94
2023-09-06T05:03:14.891Z,101705.66
2023-09-06T05:05:43.097Z,101704.75
2023-09-06T05:08:10.679Z,101710.94
2023-09-06T05:10:38.883Z,101710.94
2023-09-06T05:13:08.846Z,101707.38
2023-09-06T05:15:38.003Z,101710.00
2023-09-06T05:18:06.742Z,101710.94
2023-09-06T05:20:36.497Z,101706.56
2023-09-06T05:23:08.619Z,101710.94
2023-09-06T05:25:36.685Z,101713.59
2023-09-06T05:28:14.025Z,101722.38
2023-09-06T05:30:42.824Z,101710.94
2023-09-06T05:33:10.959Z,101716.22
2023-09-06T05:35:38.979Z,101721.47
2023-09-06T05:38:06.348Z,101722.31
2023-09-06T05:40:34.616Z,101724.94
2023-09-06T05:43:02.849Z,101726.63
2023-09-06T05:45:29.918Z,101719.56
2023-09-06T05:47:56.992Z,101727.41
2023-09-06T05:50:24.406Z,101720.28
2023-09-06T05:52:51.629Z,101721.19
2023-09-06T05:55:19.132Z,101724.66
2023-09-06T05:57:46.412Z,101728.09
2023-09-06T06:00:16.670Z,101720.13
2023-09-06T06:02:44.302Z,101716.50
2023-09-06T06:05:13.199Z,101727.88
2023-09-06T06:07:40.769Z,101724.31
2023-09-06T06:10:11.109Z,101730.41
2023-09-06T06:12:40.225Z,101722.41
2023-09-06T06:15:14.905Z,101729.38
2023-09-06T06:17:42.709Z,101730.97
2023-09-06T06:20:14.574Z,101735.22
2023-09-06T06:22:42.211Z,101733.25
2023-09-06T06:25:10.117Z,101735.69
2023-09-06T06:27:38.689Z,101735.34
2023-09-06T06:30:07.757Z,101731.47
2023-09-06T06:32:35.677Z,101736.28
2023-09-06T06:35:07.100Z,101740.34
2023-09-06T06:37:34.676Z,101743.56
2023-09-06T06:40:02.108Z,101742.50
2023-09-06T06:42:30.049Z,101738.78
2023-09-06T06:44:57.047Z,101740.31
2023-09-06T06:47:24.247Z,101743.59
2023-09-06T06:49:56.121Z,101753.91
2023-09-06T06:52:23.092Z,101748.38
2023-09-06T06:54:50.231Z,101757.84
2023-09-06T06:57:17.144Z,101764.63
2023-09-06T06:59:45.877Z,101761.69
2023-09-06T07:02:14.387Z,101762.94
2023-09-06T07:04:41.717Z,101765.41
2023-09-06T07:07:08.880Z,101763.41
2023-09-06T07:09:36.174Z,101764.19
2023-09-06T07:12:05.294Z,101763.13
2023-09-06T07:14:33.135Z,101763.72
2023-09-06T07:17:00.344Z,101764.31
2023-09-06T07:19:27.832Z,101765.94
2023-09-06T07:21:55.564Z,101768.22
2023-09-06T07:24:22.255Z,101767.06
2023-09-06T07:26:49.887Z,101771.00
2023-09-06T07:29:18.830Z,101769.75
2023-09-06T07:31:46.346Z,101772.97
2023-09-06T07:34:13.579Z,101768.34
2023-09-06T07:36:40.583Z,101776.06
2023-09-06T07:39:09.166Z,101769.56
2023-09-06T07:41:36.474Z,101776.31
2023-09-06T07:44:03.905Z,101776.91
2023-09-06T07:46:32.130Z,101768.88
2023-09-06T07:48:59.909Z,101772.22
2023-09-06T07:51:27.248Z,101771.19
2023-09-06T07:53:54.902Z,101775.34
2023-09-06T07:56:22.621Z,101773.22
2023-09-06T07:58:49.477Z,101776.56
2023-09-06T08:01:19.594Z,101777.88
2023-09-06T08:03:48.589Z,101772.34
2023-09-06T08:06:16.798Z,101781.66
2023-09-06T08:08:45.093Z,101775.91
2023-09-06T08:11:12.058Z,101781.97
2023-09-06T08:13:39.573Z,101780.94
2023-09-06T08:16:06.884Z,101777.94
2023-09-06T08:18:34.590Z,101774.94
2023-09-06T08:21:02.178Z,101776.56
2023-09-06T08:23:29.576Z,101772.59
2023-09-06T08:25:58.411Z,101765.88
2023-09-06T08:28:25.586Z,101775.31
2023-09-06T08:30:53.181Z,101775.97
2023-09-06T08:33:20.208Z,101777.03
2023-09-06T08:35:47.271Z,101768.00
2023-09-06T08:38:14.618Z,101774.00
2023-09-06T08:40:41.803Z,101771.00
2023-09-06T08:43:12.726Z,101772.81
2023-09-06T08:45:43.562Z,101775.13
2023-09-06T08:48:10.989Z,101771.00
2023-09-06T08:50:38.857Z,101771.34
2023-09-06T08:53:10.973Z,101771.53
2023-09-06T08:55:38.622Z,101774.06
2023-09-06T08:58:06.672Z,101762.22
2023-09-06T09:00:35.939Z,101768.25
2023-09-06T09:03:03.520Z,101779.53
2023-09-06T09:05:30.888Z,101766.94
2023-09-06T09:08:02.402Z,101777.13
2023-09-06T09:10:33.345Z,101781.59
2023-09-06T09:13:02.049Z,101785.91
2023-09-06T09:15:34.416Z,101784.31
2023-09-06T09:18:12.474Z,101782.22
2023-09-06T09:20:41.782Z,101780.72
2023-09-06T09:23:17.282Z,101778.88
2023-09-06T09:25:49.363Z,101794.00
2023-09-06T09:28:17.352Z,101786.59
2023-09-06T09:30:47.614Z,101784.41
2023-09-06T09:33:15.772Z,101784.78
2023-09-06T09:35:45.074Z,101782.75
2023-09-06T09:38:12.137Z,101777.09
2023-09-06T09:43:09.451Z,101773.69
2023-09-06T09:45:42.558Z,101779.19
2023-09-06T09:48:10.143Z,101778.75
2023-09-06T09:50:39.553Z,101770.44
2023-09-06T09:53:21.058Z,101772.78
2023-09-06T09:55:54.091Z,101772.63
2023-09-06T09:58:21.950Z,101761.50
2023-09-06T10:00:53.352Z,101766.19
2023-09-06T10:03:22.835Z,101769.78
2023-09-06T10:05:51.116Z,101764.28
2023-09-06T10:08:20.017Z,101765.75
2023-09-06T10:10:47.025Z,101762.09
2023-09-06T10:13:15.836Z,101763.00
2023-09-06T10:15:45.004Z,101755.91
2023-09-06T10:18:13.184Z,101755.75
2023-09-06T10:20:41.231Z,101760.03
2023-09-06T10:23:09.010Z,101758.13
2023-09-06T10:25:51.653Z,101756.84
2023-09-06T10:28:24.949Z,101754.78
2023-09-06T10:31:08.507Z,101755.84
2023-09-06T10:33:35.354Z,101760.00
2023-09-06T10:36:16.497Z,101750.50
2023-09-06T10:38:52.805Z,101744.47
2023-09-06T10:41:21.413Z,101752.00
2023-09-06T10:43:59.115Z,101754.31
2023-09-06T10:46:28.539Z,101749.16
2023-09-06T10:49:25.243Z,101756.56
2023-09-06T10:52:04.758Z,101751.22
2023-09-06T10:54:43.153Z,101743.25
2023-09-06T10:57:14.692Z,101748.94
2023-09-06T10:59:56.570Z,101746.16
2023-09-06T11:02:23.809Z,101746.97
2023-09-06T11:05:11.305Z,101748.97
2023-09-06T11:10:15.268Z,101744.72
2023-09-06T11:12:42.687Z,101739.22
2023-09-06T11:15:11.510Z,101732.13
2023-09-06T11:17:38.629Z,101734.19
2023-09-06T11:20:23.714Z,101728.50
2023-09-06T11:22:58.022Z,101728.13
2023-09-06T11:25:26.422Z,101725.00
2023-09-06T11:27:57.497Z,101724.72
2023-09-06T11:30:27.972Z,101718.03
2023-09-06T11:32:56.466Z,101719.94
2023-09-06T11:35:28.938Z,101713.44
2023-09-06T11:37:59.342Z,101715.34
2023-09-06T11:40:29.611Z,101707.31
2023-09-06T11:43:06.287Z,101698.84
2023-09-06T11:45:34.337Z,101704.00
2023-09-06T11:48:08.918Z,101704.69
2023-09-06T11:50:44.083Z,101708.50
2023-09-06T11:53:11.519Z,101711.53
2023-09-06T11:55:42.836Z,101701.09
2023-09-06T11:58:22.298Z,101707.31
2023-09-06T12:00:52.496Z,101705.22
2023-09-06T12:03:29.019Z,101704.44
2023-09-06T12:06:01.003Z,101700.94
2023-09-06T12:08:30.940Z,101696.94
2023-09-06T12:11:12.080Z,101688.13
2023-09-06T12:13:39.726Z,101688.66
2023-09-06T12:16:12.524Z,101682.50
2023-09-06T12:18:40.773Z,101677.13
2023-09-06T12:21:08.686Z,101676.38
2023-09-06T12:23:38.633Z,101682.91
2023-09-06T12:26:06.550Z,101674.63
2023-09-06T12:28:35.561Z,101676.22
2023-09-06T12:31:16.439Z,101676.09
2023-09-06T12:33:48.008Z,101672.47
2023-09-06T12:36:18.152Z,101675.69
2023-09-06T12:38:45.888Z,101669.81
2023-09-06T12:41:13.796Z,101673.81
2023-09-06T12:43:41.062Z,101669.31
2023-09-06T12:46:09.218Z,101673.22
2023-09-06T12:48:37.410Z,101664.09
2023-09-06T12:51:07.116Z,101669.59
2023-09-06T12:53:34.399Z,101666.56
2023-09-06T12:56:01.738Z,101656.00
2023-09-06T12:58:29.349Z,101667.84
2023-09-06T13:00:58.913Z,101658.69
2023-09-06T13:03:26.935Z,101659.94
2023-09-06T13:05:54.243Z,101655.72
2023-09-06T13:08:21.583Z,101657.78
2023-09-06T13:10:48.638Z,101652.34
2023-09-06T13:13:15.680Z,101664.94
2023-09-06T13:15:43.162Z,101660.03
2023-09-06T13:18:10.862Z,101653.81
2023-09-06T13:20:37.975Z,101648.72
2023-09-06T13:23:05.493Z,101649.34
2023-09-06T13:25:36.193Z,101652.56
2023-09-06T13:28:03.593Z,101651.22
2023-09-06T13:30:30.985Z,101644.72
2023-09-06T13:32:58.115Z,101641.81
2023-09-06T13:35:25.410Z,101646.16
2023-09-06T13:37:52.501Z,101638.25
2023-09-06T13:40:21.182Z,101643.22
2023-09-06T13:42:48.742Z,101644.50
2023-09-06T13:45:15.867Z,101633.63
2023-09-06T13:47:43.366Z,101634.50
2023-09-06T13:50:10.808Z,101635.09
2023-09-06T13:52:37.625Z,101632.00
2023-09-06T13:55:05.225Z,101629.16
2023-09-06T13:57:32.419Z,101626.69
2023-09-06T13:59:59.536Z,101624.44
2023-09-06T14:02:27.370Z,101627.47
2023-09-06T14:04:58.212Z,101635.47
2023-09-06T14:07:25.799Z,101628.50
2023-09-06T14:09:53.259Z,101630.22
2023-09-06T14:12:21.098Z,101626.94
2023-09-06T14:14:48.038Z,101619.75
2023-09-06T14:17:15.262Z,101621.59
2023-09-06T14:19:42.572Z,101621.97
2023-09-06T14:22:11.430Z,101620.91
2023-09-06T14:24:39.306Z,101632.81
2023-09-06T14:27:06.516Z,101621.31
2023-09-06T14:29:34.439Z,101615.00
2023-09-06T14:32:02.004Z,101615.34
2023-09-06T14:34:29.522Z,101614.50
2023-09-06T14:36:56.728Z,101613.84
2023-09-06T14:39:24.557Z,101607.66
2023-09-06T14:41:51.571Z,101610.25
2023-09-06T14:44:18.985Z,101608.31
2023-09-06T14:46:45.978Z,101608.13
2023-09-06T14:49:13.682Z,101610.38
2023-09-06T14:51:41.061Z,101603.56
2023-09-06T14:54:08.539Z,101604.63
2023-09-06T14:56:37.931Z,101605.59
2023-09-06T14:59:06.158Z,101602.47
2023-09-06T15:01:34.547Z,101606.69
2023-09-06T15:04:01.793Z,101603.09
2023-09-06T15:06:39.273Z,101601.44
2023-09-06T15:09:16.179Z,101602.75
2023-09-06T15:11:43.556Z,101596.75
2023-09-06T15:14:11.448Z,101600.13
2023-09-06T15:16:39.038Z,101590.25
2023-09-06T15:19:06.797Z,101594.69
2023-09-06T15:21:35.936Z,101587.56
2023-09-06T15:24:03.067Z,101594.75
2023-09-06T15:26:30.449Z,101587.56
2023-09-06T15:28:57.667Z,101588.75
2023-09-06T15:31:25.562Z,101588.59
2023-09-06T15:33:52.645Z,101578.66
2023-09-06T15:36:19.523Z,101580.69
2023-09-06T15:38:46.579Z,101582.72
2023-09-06T15:41:18.493Z,101582.97
2023-09-06T15:43:46.723Z,101581.22
2023-09-06T15:46:14.941Z,101592.66
2023-09-06T15:48:42.580Z,101587.72
2023-09-06T15:51:09.972Z,101582.47
2023-09-06T15:53:37.067Z,101582.34
2023-09-06T15:56:04.985Z,101580.66
2023-09-06T15:58:32.309Z,101572.75
2023-09-06T16:01:00.392Z,101581.94
2023-09-06T16:03:27.822Z,101579.44
2023-09-06T16:05:55.127Z,101571.13
2023-09-06T16:08:23.625Z,101576.69
2023-09-06T16:10:52.188Z,101573.00
2023-09-06T16:13:19.367Z,101568.50
2023-09-06T16:15:49.824Z,101574.34
2023-09-06T16:18:16.776Z,101568.50
2023-09-06T16:20:44.417Z,101568.53
2023-09-06T16:23:12.409Z,101571.00
2023-09-06T16:25:39.336Z,101570.75
2023-09-06T16:28:06.578Z,101577.69
2023-09-06T16:30:34.379Z,101562.31
2023-09-06T16:33:01.992Z,101568.00
2023-09-06T16:35:29.159Z,101569.44
2023-09-06T16:37:56.313Z,101567.91
2023-09-06T16:40:25.005Z,101576.44
2023-09-06T16:42:52.777Z,101577.16
2023-09-06T16:45:20.815Z,101575.88
2023-09-06T16:47:50.868Z,101565.25
2023-09-06T16:50:19.754Z,101563.13
2023-09-06T16:52:47.231Z,101561.97
2023-09-06T16:55:15.077Z,101555.41
2023-09-06T16:57:41.908Z,101551.78
2023-09-06T17:00:10.200Z,101551.81
2023-09-06T17:02:37.844Z,101557.78
2023-09-06T17:05:09.573Z,101554.50
2023-09-06T17:07:38.840Z,101546.50
2023-09-06T17:10:09.537Z,101546.00
2023-09-06T17:12:37.991Z,101544.03
2023-09-06T17:15:17.237Z,101552.53
2023-09-06T17:17:44.446Z,101557.47
2023-09-06T17:20:15.844Z,101552.53
2023-09-06T17:22:44.160Z,101548.16
2023-09-06T17:25:12.209Z,101548.28
2023-09-06T17:27:42.818Z,101548.91
2023-09-06T17:30:11.314Z,101555.81
2023-09-06T17:32:42.469Z,101545.41
2023-09-06T17:35:11.376Z,101554.13
2023-09-06T17:37:38.311Z,101551.38
2023-09-06T17:40:11.715Z,101563.34
2023-09-06T17:42:38.954Z,101556.59
2023-09-06T17:45:13.270Z,101560.13
2023-09-06T17:47:43.047Z,101559.25
2023-09-06T17:50:13.132Z,101553.91
2023-09-06T17:52:40.441Z,101555.81
2023-09-06T17:55:08.042Z,101556.84
2023-09-06T17:57:35.511Z,101554.97
2023-09-06T18:00:03.393Z,101554.94
2023-09-06T18:02:33.631Z,101562.75
2023-09-06T18:05:02.479Z,101563.56
2023-09-06T18:07:29.782Z,101567.78
2023-09-06T18:09:58.702Z,101565.75
2023-09-06T18:12:26.779Z,101566.34
2023-09-06T18:14:55.651Z,101566.22
2023-09-06T18:17:24.263Z,101575.22
2023-09-06T18:19:51.830Z,101569.44
2023-09-06T18:22:19.906Z,101569.25
2023-09-06T18:24:46.814Z,101577.00
2023-09-06T18:27:13.821Z,101574.09
2023-09-06T18:29:41.045Z,101574.78
2023-09-06T18:32:08.109Z,101577.31
2023-09-06T18:34:35.353Z,101584.34
2023-09-06T18:37:02.541Z,101581.63
2023-09-06T18:39:29.606Z,101586.63
2023-09-06T18:41:56.666Z,101584.56
2023-09-06T18:44:24.803Z,101593.25
2023-09-06T18:46:52.439Z,101590.28
2023-09-06T18:49:20.203Z,101595.22
2023-09-06T18:51:47.483Z,101591.47
2023-09-06T18:54:14.369Z,101586.81
2023-09-06T18:56:41.450Z,101599.78
2023-09-06T18:59:10.031Z,101601.09
2023-09-06T19:01:37.173Z,101601.59
2023-09-06T19:04:05.381Z,101595.88
2023-09-06T19:06:35.735Z,101606.88
2023-09-06T19:09:09.115Z,101613.47
2023-09-06T19:11:38.081Z,101608.69
2023-09-06T19:14:05.464Z,101613.63
2023-09-06T19:16:33.465Z,101622.00
2023-09-06T19:19:00.787Z,101622.44
2023-09-06T19:21:28.054Z,101620.88
2023-09-06T19:23:55.108Z,101621.16
2023-09-06T19:26:22.621Z,101622.25
2023-09-06T19:28:49.819Z,101626.97
2023-09-06T19:31:17.122Z,101621.84
2023-09-06T19:33:44.329Z,101621.22
2023-09-06T19:36:11.399Z,101621.50
2023-09-06T19:38:38.258Z,101622.69
2023-09-06T19:41:05.912Z,101623.91
2023-09-06T19:43:33.294Z,101625.00
2023-09-06T19:46:00.487Z,101622.53
2023-09-06T19:48:27.735Z,101624.75
2023-09-06T19:50:55.262Z,101618.66
2023-09-06T19:53:22.802Z,101624.25
2023-09-06T19:55:50.050Z,101627.97
2023-09-06T19:58:17.020Z,101629.84
2023-09-06T20:00:44.474Z,101636.53
2023-09-06T20:03:12.219Z,101642.94
2023-09-06T20:05:39.225Z,101646.53
2023-09-06T20:08:06.316Z,101642.94
2023-09-06T20:10:33.384Z,101639.47
2023-09-06T20:13:00.441Z,101642.19
2023-09-06T20:15:27.574Z,101651.28
2023-09-06T20:17:56.069Z,101650.56
2023-09-06T20:20:23.624Z,101652.53
2023-09-06T20:22:50.525Z,101652.81
2023-09-06T20:25:17.719Z,101652.22
2023-09-06T20:27:44.486Z,101651.75
2023-09-06T20:30:12.097Z,101648.59
2023-09-06T20:32:39.321Z,101655.84
2023-09-06T20:35:06.950Z,101656.94
2023-09-06T20:37:34.114Z,101654.41
2023-09-06T20:40:01.358Z,101662.75
2023-09-06T20:42:28.853Z,101661.44
2023-09-06T20:44:56.189Z,101659.88
2023-09-06T20:47:24.101Z,101659.41
2023-09-06T20:49:58.960Z,101663.41
2023-09-06T20:52:25.846Z,101660.03
2023-09-06T20:54:54.835Z,101665.75
2023-09-06T20:57:22.148Z,101662.16
2023-09-06T20:59:50.680Z,101667.78
2023-09-06T21:02:19.303Z,101671.41
2023-09-06T21:04:46.543Z,101668.91
2023-09-06T21:07:13.782Z,101670.69
2023-09-06T21:09:41.543Z,101661.13
2023-09-06T21:12:09.644Z,101668.41
2023-09-06T21:14:36.630Z,101666.91
2023-09-06T21:17:03.933Z,101669.69
2023-09-06T21:19:30.702Z,101677.88
2023-09-06T21:21:57.861Z,101674.56
2023-09-06T21:24:24.558Z,101676.41
2023-09-06T21:26:51.598Z,101682.81
2023-09-06T21:29:28.256Z,101683.91
2023-09-06T21:31:57.520Z,101691.19
2023-09-06T21:34:25.000Z,101690.44
2023-09-06T21:36:53.479Z,101694.13
2023-09-06T21:39:21.037Z,101690.81
2023-09-06T21:41:48.097Z,101687.53
2023-09-06T21:44:17.565Z,101686.66
2023-09-06T21:46:45.036Z,101686.78
2023-09-06T21:49:12.210Z,101691.34
2023-09-06T21:51:40.538Z,101694.13
2023-09-06T21:54:08.670Z,101690.63
2023-09-06T21:56:36.178Z,101694.34
2023-09-06T21:59:04.522Z,101703.31
2023-09-06T22:01:35.944Z,101696.38
2023-09-06T22:04:03.917Z,101691.19
2023-09-06T22:06:31.435Z,101703.66
2023-09-06T22:08:58.522Z,101697.63
2023-09-06T22:11:25.751Z,101705.69
2023-09-06T22:13:52.495Z,101697.84
2023-09-06T22:16:19.788Z,101697.94
2023-09-06T22:18:46.919Z,101692.72
2023-09-06T22:21:13.845Z,101698.97
2023-09-06T22:23:41.321Z,101693.03
2023-09-06T22:26:09.757Z,101699.25
2023-09-06T22:28:37.025Z,101699.38
2023-09-06T22:31:04.682Z,101694.19
2023-09-06T22:33:31.881Z,101688.19
2023-09-06T22:35:58.826Z,101699.69
2023-09-06T22:38:26.102Z,101697.97
2023-09-06T22:40:52.892Z,101695.38
2023-09-06T22:43:19.886Z,101696.47
2023-09-06T22:45:50.799Z,101696.56
2023-09-06T22:48:18.657Z,101693.06
2023-09-06T22:50:46.310Z,101701.19
2023-09-06T22:53:13.670Z,101697.78
2023-09-06T22:55:42.033Z,101691.81
2023-09-06T22:58:09.104Z,101693.84
2023-09-06T23:00:37.072Z,101692.09
2023-09-06T23:03:04.966Z,101703.69
2023-09-06T23:05:32.543Z,101697.69
2023-09-06T23:08:00.058Z,101700.56
2023-09-06T23:10:27.669Z,101699.84
2023-09-06T23:12:57.279Z,101703.66
2023-09-06T23:15:26.396Z,101703.75
2023-09-06T23:17:55.672Z,101702.13
2023-09-06T23:20:31.831Z,101702.97
2023-09-06T23:22:59.694Z,101693.25
2023-09-06T23:25:34.626Z,101692.56
2023-09-06T23:28:12.472Z,101695.25
2023-09-06T23:30:46.040Z,101688.13
2023-09-06T23:33:21.504Z,101687.28
2023-09-06T23:35:50.296Z,101691.72
2023-09-06T23:38:18.584Z,101687.22
2023-09-06T23:40:49.928Z,101688.13
2023-09-06T23:43:17.166Z,101681.03
2023-09-06T23:45:45.995Z,101681.91
2023-09-06T23:48:13.344Z,101678.41
2023-09-06T23:50:40.389Z,101676.69
2023-09-06T23:53:07.620Z,101681.31
2023-09-06T23:55:36.242Z,101677.91
2023-09-06T23:58:05.388Z,101668.31
